createdAt,value
2022-10-13T00:00:51.332Z,385.40
2022-10-13T00:01:51.288Z,387.20
2022-10-13T00:02:51.243Z,386.70
2022-10-13T00:03:51.245Z,381.70
2022-10-13T00:04:51.220Z,378.50
2022-10-13T00:05:51.202Z,376.10
2022-10-13T00:06:51.228Z,381.10
2022-10-13T00:07:51.174Z,386.80
2022-10-13T00:08:51.171Z,379.00
2022-10-13T00:09:51.169Z,386.60
2022-10-13T00:10:51.159Z,388.50
2022-10-13T00:11:51.196Z,383.00
2022-10-13T00:12:51.119Z,387.50
2022-10-13T00:13:51.120Z,380.30
2022-10-13T00:14:51.091Z,389.90
2022-10-13T00:15:51.102Z,384.60
2022-10-13T00:16:51.145Z,386.30
2022-10-13T00:17:51.080Z,390.90
2022-10-13T00:18:51.055Z,383.50
2022-10-13T00:19:51.037Z,392.80
2022-10-13T00:20:51.011Z,403.40
2022-10-13T00:21:51.058Z,416.40
2022-10-13T00:22:51.024Z,424.20
2022-10-13T00:23:51.003Z,430.70
2022-10-13T00:24:50.998Z,419.00
2022-10-13T00:25:50.976Z,403.10
2022-10-13T00:26:51.006Z,391.70
2022-10-13T00:27:50.960Z,387.90
2022-10-13T00:28:52.844Z,388.30
2022-10-13T00:29:50.937Z,379.90
2022-10-13T00:30:50.924Z,377.70
2022-10-13T00:31:50.938Z,372.90
2022-10-13T00:32:50.901Z,376.90
2022-10-13T00:33:50.886Z,376.70
2022-10-13T00:34:50.877Z,378.20
2022-10-13T00:35:50.857Z,385.20
2022-10-13T00:36:50.895Z,394.40
2022-10-13T00:37:50.843Z,397.40
2022-10-13T00:38:50.952Z,403.40
2022-10-13T00:39:50.818Z,395.10
2022-10-13T00:40:50.800Z,408.60
2022-10-13T00:41:50.926Z,407.30
2022-10-13T00:42:50.779Z,414.40
2022-10-13T00:43:50.790Z,413.90
2022-10-13T00:44:50.751Z,422.40
2022-10-13T00:45:50.765Z,425.20
2022-10-13T00:46:50.790Z,423.30
2022-10-13T00:47:50.721Z,431.30
2022-10-13T00:48:50.712Z,442.10
2022-10-13T00:49:50.707Z,450.10
2022-10-13T00:50:50.681Z,446.80
2022-10-13T00:51:50.712Z,439.20
2022-10-13T00:52:50.653Z,449.10
2022-10-13T00:53:50.654Z,453.20
2022-10-13T00:54:50.655Z,430.20
2022-10-13T00:55:50.646Z,411.70
2022-10-13T00:56:50.665Z,413.70
2022-10-13T00:57:50.616Z,401.10
2022-10-13T00:58:50.606Z,401.60
2022-10-13T00:59:50.600Z,403.10
2022-10-13T01:00:50.616Z,410.10
2022-10-13T01:01:50.609Z,407.90
2022-10-13T01:02:50.552Z,394.30
2022-10-13T01:03:50.533Z,393.10
2022-10-13T01:04:50.533Z,387.40
2022-10-13T01:05:50.522Z,386.70
2022-10-13T01:06:50.530Z,385.50
2022-10-13T01:07:50.485Z,390.70
2022-10-13T01:08:50.506Z,393.90
2022-10-13T01:09:50.480Z,403.60
2022-10-13T01:10:50.456Z,415.80
2022-10-13T01:11:50.487Z,424.70
2022-10-13T01:12:50.432Z,423.50
2022-10-13T01:13:50.437Z,418.10
2022-10-13T01:14:50.417Z,413.90
2022-10-13T01:15:50.397Z,414.10
2022-10-13T01:16:50.437Z,415.30
2022-10-13T01:17:50.377Z,409.40
2022-10-13T01:18:50.377Z,398.50
2022-10-13T01:19:50.363Z,398.50
2022-10-13T01:20:50.332Z,398.40
2022-10-13T01:21:50.359Z,410.70
2022-10-13T01:22:50.389Z,418.70
2022-10-13T01:23:50.321Z,420.90
2022-10-13T01:24:50.295Z,419.10
2022-10-13T01:25:50.299Z,410.50
2022-10-13T01:26:50.333Z,404.40
2022-10-13T01:27:50.258Z,408.10
2022-10-13T01:28:50.338Z,412.10
2022-10-13T01:29:50.244Z,410.50
2022-10-13T01:30:50.240Z,396.30
2022-10-13T01:31:50.278Z,392.30
2022-10-13T01:32:50.219Z,397.50
2022-10-13T01:33:50.196Z,401.80
2022-10-13T01:34:50.185Z,390.30
2022-10-13T01:35:50.179Z,389.30
2022-10-13T01:36:50.215Z,380.40
2022-10-13T01:37:50.160Z,380.20
2022-10-13T01:38:50.143Z,375.40
2022-10-13T01:39:50.140Z,378.70
2022-10-13T01:40:50.126Z,385.90
2022-10-13T01:41:50.124Z,384.50
2022-10-13T01:42:50.100Z,380.80
2022-10-13T01:43:50.081Z,392.80
2022-10-13T01:44:50.087Z,390.80
2022-10-13T01:45:50.064Z,398.50
2022-10-13T01:46:50.094Z,378.80
2022-10-13T01:47:50.039Z,355.70
2022-10-13T01:48:50.039Z,314.30
2022-10-13T01:49:50.004Z,305.60
2022-10-13T01:50:49.994Z,292.40
2022-10-13T01:51:50.035Z,292.70
2022-10-13T01:52:49.970Z,296.10
2022-10-13T01:53:50.008Z,312.00
2022-10-13T01:54:49.956Z,323.80
2022-10-13T01:55:49.955Z,328.90
2022-10-13T01:56:49.993Z,327.00
2022-10-13T01:57:49.929Z,328.50
2022-10-13T01:58:49.915Z,327.00
2022-10-13T01:59:49.898Z,323.70
2022-10-13T02:00:49.938Z,309.60
2022-10-13T02:01:49.929Z,293.00
2022-10-13T02:02:49.856Z,264.70
2022-10-13T02:03:49.852Z,240.60
2022-10-13T02:04:49.872Z,247.80
2022-10-13T02:05:49.840Z,248.50
2022-10-13T02:06:49.871Z,249.60
2022-10-13T02:07:49.819Z,305.20
2022-10-13T02:08:49.800Z,308.90
2022-10-13T02:09:49.792Z,295.00
2022-10-13T02:10:49.780Z,304.30
2022-10-13T02:11:49.816Z,281.20
2022-10-13T02:12:49.760Z,286.10
2022-10-13T02:13:49.736Z,285.20
2022-10-13T02:14:49.737Z,280.20
2022-10-13T02:15:49.713Z,267.70
2022-10-13T02:16:49.747Z,270.10
2022-10-13T02:17:49.689Z,258.50
2022-10-13T02:18:49.700Z,250.90
2022-10-13T02:19:49.701Z,255.90
2022-10-13T02:20:49.649Z,277.90
2022-10-13T02:21:49.688Z,283.40
2022-10-13T02:22:49.627Z,291.00
2022-10-13T02:23:49.635Z,303.80
2022-10-13T02:24:49.624Z,289.20
2022-10-13T02:25:49.606Z,281.60
2022-10-13T02:26:49.647Z,261.80
2022-10-13T02:27:49.603Z,254.30
2022-10-13T02:28:49.612Z,253.80
2022-10-13T02:29:49.579Z,250.80
2022-10-13T02:30:49.556Z,251.00
2022-10-13T02:31:49.587Z,256.20
2022-10-13T02:32:49.542Z,366.80
2022-10-13T02:33:49.510Z,349.90
2022-10-13T02:34:49.522Z,364.60
2022-10-13T02:35:49.493Z,373.40
2022-10-13T02:36:49.515Z,388.80
2022-10-13T02:37:49.473Z,401.10
2022-10-13T02:38:49.495Z,403.90
2022-10-13T02:39:49.461Z,445.40
2022-10-13T02:40:49.435Z,411.30
2022-10-13T02:41:49.470Z,369.00
2022-10-13T02:42:49.419Z,428.20
2022-10-13T02:43:49.415Z,332.60
2022-10-13T02:44:49.396Z,310.60
2022-10-13T02:45:49.372Z,303.50
2022-10-13T02:46:49.416Z,385.20
2022-10-13T02:47:49.358Z,436.30
2022-10-13T02:48:49.364Z,476.60
2022-10-13T02:49:49.335Z,459.00
2022-10-13T02:50:49.314Z,503.40
2022-10-13T02:51:49.351Z,495.60
2022-10-13T02:52:49.296Z,511.80
2022-10-13T02:53:49.306Z,516.70
2022-10-13T02:54:49.325Z,520.90
2022-10-13T02:55:49.277Z,527.80
2022-10-13T02:56:49.310Z,527.80
2022-10-13T02:57:49.255Z,525.20
2022-10-13T02:58:49.240Z,525.50
2022-10-13T02:59:49.230Z,491.20
2022-10-13T03:00:49.249Z,484.20
2022-10-13T03:01:49.245Z,483.20
2022-10-13T03:02:49.220Z,481.20
2022-10-13T03:03:49.173Z,485.00
2022-10-13T03:04:49.180Z,483.30
2022-10-13T03:05:49.163Z,471.10
2022-10-13T03:06:49.192Z,463.50
2022-10-13T03:07:49.138Z,463.90
2022-10-13T03:08:49.140Z,464.60
2022-10-13T03:09:49.117Z,476.50
2022-10-13T03:10:49.099Z,475.60
2022-10-13T03:11:49.129Z,474.40
2022-10-13T03:12:49.085Z,475.80
2022-10-13T03:13:49.074Z,466.70
2022-10-13T03:14:49.073Z,460.00
2022-10-13T03:15:49.064Z,459.20
2022-10-13T03:16:49.096Z,463.30
2022-10-13T03:17:49.024Z,504.10
2022-10-13T03:18:49.032Z,512.10
2022-10-13T03:19:48.999Z,515.60
2022-10-13T03:20:48.980Z,510.10
2022-10-13T03:21:49.006Z,515.30
2022-10-13T03:22:50.045Z,521.40
2022-10-13T03:23:48.960Z,508.00
2022-10-13T03:24:48.988Z,519.00
2022-10-13T03:25:48.934Z,518.30
2022-10-13T03:26:48.970Z,521.60
2022-10-13T03:27:48.908Z,513.40
2022-10-13T03:28:48.953Z,499.80
2022-10-13T03:29:48.896Z,463.40
2022-10-13T03:30:48.895Z,395.50
2022-10-13T03:31:48.911Z,346.30
2022-10-13T03:32:48.864Z,289.30
2022-10-13T03:33:48.832Z,273.60
2022-10-13T03:34:48.841Z,258.00
2022-10-13T03:35:48.817Z,261.30
2022-10-13T03:36:48.851Z,263.00
2022-10-13T03:37:48.790Z,258.40
2022-10-13T03:38:48.796Z,270.30
2022-10-13T03:39:48.771Z,274.90
2022-10-13T03:40:48.789Z,279.80
2022-10-13T03:41:48.808Z,274.50
2022-10-13T03:42:48.757Z,280.70
2022-10-13T03:43:48.729Z,294.30
2022-10-13T03:44:52.386Z,293.50
2022-10-13T03:45:49.729Z,305.30
2022-10-13T03:46:48.758Z,329.60
2022-10-13T03:47:48.697Z,367.80
2022-10-13T03:48:48.673Z,388.90
2022-10-13T03:49:48.650Z,420.20
2022-10-13T03:50:48.668Z,439.00
2022-10-13T03:51:48.687Z,450.80
2022-10-13T03:52:48.633Z,453.40
2022-10-13T03:53:48.601Z,465.70
2022-10-13T03:54:48.624Z,463.80
2022-10-13T03:55:48.606Z,466.60
2022-10-13T03:56:48.632Z,465.80
2022-10-13T03:57:48.577Z,475.80
2022-10-13T03:58:48.578Z,481.80
2022-10-13T03:59:48.556Z,480.00
2022-10-13T04:00:48.539Z,486.20
2022-10-13T04:01:48.629Z,501.30
2022-10-13T04:02:48.518Z,495.30
2022-10-13T04:03:48.516Z,502.40
2022-10-13T04:04:48.504Z,503.40
2022-10-13T04:05:48.499Z,507.10
2022-10-13T04:06:48.512Z,524.40
2022-10-13T04:07:48.461Z,521.60
2022-10-13T04:08:48.459Z,513.60
2022-10-13T04:09:48.470Z,474.50
2022-10-13T04:10:48.449Z,470.50
2022-10-13T04:11:48.475Z,451.40
2022-10-13T04:12:48.432Z,470.30
2022-10-13T04:13:48.396Z,478.60
2022-10-13T04:14:48.374Z,457.40
2022-10-13T04:15:48.382Z,431.90
2022-10-13T04:16:48.417Z,421.80
2022-10-13T04:17:48.394Z,443.00
2022-10-13T04:18:48.343Z,421.10
2022-10-13T04:19:48.335Z,376.90
2022-10-13T04:20:48.310Z,341.30
2022-10-13T04:21:48.344Z,315.50
2022-10-13T04:22:48.302Z,315.70
2022-10-13T04:23:48.297Z,315.10
2022-10-13T04:24:48.283Z,292.10
2022-10-13T04:25:48.248Z,285.50
2022-10-13T04:26:48.308Z,307.90
2022-10-13T04:27:48.239Z,304.90
2022-10-13T04:28:48.290Z,352.40
2022-10-13T04:29:48.218Z,400.90
2022-10-13T04:30:49.615Z,325.30
2022-10-13T04:31:48.231Z,347.50
2022-10-13T04:32:48.176Z,386.10
2022-10-13T04:33:48.179Z,394.60
2022-10-13T04:34:48.154Z,374.20
2022-10-13T04:35:48.163Z,367.50
2022-10-13T04:36:48.190Z,344.70
2022-10-13T04:37:48.152Z,330.20
2022-10-13T04:38:48.123Z,325.90
2022-10-13T04:39:48.101Z,334.00
2022-10-13T04:40:48.103Z,354.10
2022-10-13T04:41:48.139Z,360.60
2022-10-13T04:42:48.081Z,357.80
2022-10-13T04:43:48.062Z,330.30
2022-10-13T04:44:48.062Z,311.20
2022-10-13T04:45:48.053Z,349.50
2022-10-13T04:46:48.071Z,403.40
2022-10-13T04:47:48.016Z,375.90
2022-10-13T04:48:48.016Z,341.80
2022-10-13T04:49:47.991Z,337.40
2022-10-13T04:50:47.962Z,350.30
2022-10-13T04:51:47.991Z,387.90
2022-10-13T04:52:47.937Z,397.60
2022-10-13T04:53:47.931Z,387.20
2022-10-13T04:54:47.939Z,375.50
2022-10-13T04:55:47.943Z,390.40
2022-10-13T04:56:47.957Z,396.40
2022-10-13T04:57:47.905Z,397.90
2022-10-13T04:58:47.895Z,399.50
2022-10-13T04:59:47.871Z,389.30
2022-10-13T05:00:47.917Z,370.10
2022-10-13T05:01:47.896Z,352.80
2022-10-13T05:02:47.849Z,366.50
2022-10-13T05:03:47.839Z,380.40
2022-10-13T05:04:47.827Z,387.10
2022-10-13T05:05:47.818Z,390.40
2022-10-13T05:07:16.022Z,394.70
2022-10-13T05:07:48.773Z,386.50
2022-10-13T05:08:47.778Z,382.40
2022-10-13T05:09:47.764Z,379.90
2022-10-13T05:10:47.758Z,397.10
2022-10-13T05:11:47.812Z,397.60
2022-10-13T05:12:47.753Z,376.40
2022-10-13T05:13:47.717Z,360.60
2022-10-13T05:14:47.728Z,357.00
2022-10-13T05:15:47.708Z,332.00
2022-10-13T05:16:47.748Z,317.50
2022-10-13T05:17:47.683Z,304.30
2022-10-13T05:18:47.668Z,295.20
2022-10-13T05:19:47.640Z,299.10
2022-10-13T05:20:47.625Z,299.80
2022-10-13T05:21:47.680Z,275.40
2022-10-13T05:22:47.643Z,271.10
2022-10-13T05:23:47.602Z,267.00
2022-10-13T05:24:47.605Z,267.20
2022-10-13T05:25:47.590Z,288.20
2022-10-13T05:26:47.611Z,310.50
2022-10-13T05:27:47.558Z,322.00
2022-10-13T05:28:47.607Z,329.30
2022-10-13T05:29:47.548Z,369.20
2022-10-13T05:30:47.516Z,357.40
2022-10-13T05:31:47.556Z,343.60
2022-10-13T05:32:51.514Z,333.40
2022-10-13T05:33:48.538Z,333.40
2022-10-13T05:34:47.478Z,339.80
2022-10-13T05:35:47.475Z,343.60
2022-10-13T05:36:47.522Z,283.30
2022-10-13T05:37:47.457Z,251.00
2022-10-13T05:38:47.450Z,234.20
2022-10-13T05:39:48.976Z,256.70
2022-10-13T05:40:47.399Z,294.60
2022-10-13T05:41:47.487Z,299.50
2022-10-13T05:42:47.393Z,313.40
2022-10-13T05:43:47.380Z,312.80
2022-10-13T05:44:47.376Z,391.00
2022-10-13T05:45:47.365Z,372.10
2022-10-13T05:46:47.402Z,335.70
2022-10-13T05:47:47.337Z,369.20
2022-10-13T05:48:47.325Z,289.50
2022-10-13T05:49:47.306Z,354.20
2022-10-13T05:50:47.291Z,391.10
2022-10-13T05:51:47.326Z,255.50
2022-10-13T05:52:47.281Z,341.40
2022-10-13T05:53:51.093Z,365.70
2022-10-13T05:54:48.260Z,248.60
2022-10-13T05:55:47.238Z,140.20
2022-10-13T05:56:47.270Z,358.50
2022-10-13T05:57:47.230Z,364.00
2022-10-13T05:58:47.228Z,333.70
2022-10-13T05:59:47.205Z,328.70
2022-10-13T06:00:47.208Z,311.20
2022-10-13T06:01:47.259Z,309.40
2022-10-13T06:02:47.212Z,295.30
2022-10-13T06:03:47.159Z,276.50
2022-10-13T06:04:47.158Z,270.70
2022-10-13T06:05:47.154Z,264.10
2022-10-13T06:06:47.109Z,169.30
2022-10-13T06:07:47.165Z,154.60
2022-10-13T06:08:47.094Z,270.40
2022-10-13T06:09:47.097Z,318.70
2022-10-13T06:10:47.073Z,254.30
2022-10-13T06:11:47.058Z,178.10
2022-10-13T06:12:47.095Z,151.50
2022-10-13T06:13:47.043Z,147.10
2022-10-13T06:14:47.047Z,176.30
2022-10-13T06:15:47.017Z,283.80
2022-10-13T06:16:47.047Z,157.50
2022-10-13T06:17:47.176Z,132.50
2022-10-13T06:18:46.992Z,211.30
2022-10-13T06:19:46.960Z,165.60
2022-10-13T06:20:46.945Z,206.70
2022-10-13T06:21:46.950Z,172.20
2022-10-13T06:22:46.996Z,152.10
2022-10-13T06:23:46.915Z,294.70
2022-10-13T06:24:46.919Z,233.80
2022-10-13T06:25:46.896Z,169.10
2022-10-13T06:26:46.938Z,160.50
2022-10-13T06:27:46.928Z,252.60
2022-10-13T06:28:50.180Z,247.90
2022-10-13T06:29:47.856Z,188.00
2022-10-13T06:30:46.863Z,277.70
2022-10-13T06:31:46.826Z,253.90
2022-10-13T06:32:46.878Z,282.40
2022-10-13T06:33:46.824Z,268.30
2022-10-13T06:34:46.803Z,202.30
2022-10-13T06:35:46.796Z,265.80
2022-10-13T06:36:46.784Z,252.90
2022-10-13T06:37:46.819Z,224.00
2022-10-13T06:38:46.760Z,310.70
2022-10-13T06:39:46.774Z,316.90
2022-10-13T06:40:46.749Z,263.20
2022-10-13T06:41:46.723Z,268.80
2022-10-13T06:42:46.749Z,196.70
2022-10-13T06:43:46.696Z,132.80
2022-10-13T06:44:46.700Z,253.90
2022-10-13T06:45:46.674Z,169.10
2022-10-13T06:46:46.682Z,94.90
2022-10-13T06:47:46.700Z,160.50
2022-10-13T06:48:46.654Z,138.20
2022-10-13T06:49:46.614Z,81.80
2022-10-13T06:50:46.612Z,172.90
2022-10-13T06:51:46.629Z,76.60
2022-10-13T06:52:46.653Z,89.60
2022-10-13T06:53:46.616Z,87.90
2022-10-13T06:54:46.588Z,99.10
2022-10-13T06:55:51.564Z,126.20
2022-10-13T06:56:47.552Z,177.50
2022-10-13T06:57:46.588Z,190.10
2022-10-13T06:58:46.541Z,157.30
2022-10-13T06:59:46.533Z,125.80
2022-10-13T07:00:46.528Z,109.50
2022-10-13T07:01:46.498Z,98.10
2022-10-13T07:02:46.541Z,114.70
2022-10-13T07:03:46.482Z,93.30
2022-10-13T07:04:46.467Z,81.20
2022-10-13T07:05:46.471Z,87.00
2022-10-13T07:06:46.460Z,111.20
2022-10-13T07:07:46.492Z,83.40
2022-10-13T07:08:46.410Z,90.70
2022-10-13T07:09:46.419Z,116.20
2022-10-13T07:10:46.389Z,92.90
2022-10-13T07:11:46.376Z,95.50
2022-10-13T07:12:46.413Z,168.90
2022-10-13T07:13:47.045Z,238.30
2022-10-13T07:14:46.352Z,56.70
2022-10-13T07:15:46.353Z,74.70
2022-10-13T07:16:46.333Z,83.80
2022-10-13T07:17:46.371Z,101.90
2022-10-13T07:18:46.296Z,79.20
2022-10-13T07:19:46.291Z,94.60
2022-10-13T07:20:46.305Z,321.30
2022-10-13T07:21:46.290Z,241.30
2022-10-13T07:22:46.295Z,52.40
2022-10-13T07:23:46.256Z,57.70
2022-10-13T07:24:46.242Z,59.10
2022-10-13T07:25:46.236Z,88.50
2022-10-13T07:26:46.215Z,54.00
2022-10-13T07:27:46.246Z,63.50
2022-10-13T07:28:46.239Z,77.80
2022-10-13T07:29:46.192Z,52.80
2022-10-13T07:30:46.178Z,69.50
2022-10-13T07:31:46.207Z,77.20
2022-10-13T07:32:46.179Z,70.80
2022-10-13T07:33:46.129Z,89.10
2022-10-13T07:34:46.129Z,79.80
2022-10-13T07:35:46.125Z,106.40
2022-10-13T07:36:46.109Z,103.00
2022-10-13T07:37:46.161Z,125.90
2022-10-13T07:38:46.096Z,114.50
2022-10-13T07:39:46.068Z,133.60
2022-10-13T07:40:46.078Z,124.30
2022-10-13T07:41:50.744Z,122.00
2022-10-13T07:42:47.093Z,114.00
2022-10-13T07:43:46.046Z,95.60
2022-10-13T07:44:45.987Z,89.60
2022-10-13T07:45:46.013Z,126.10
2022-10-13T07:46:45.982Z,68.10
2022-10-13T07:47:46.014Z,52.10
2022-10-13T07:48:45.947Z,80.20
2022-10-13T07:49:45.946Z,73.40
2022-10-13T07:50:45.957Z,110.50
2022-10-13T07:51:45.952Z,189.10
2022-10-13T07:52:45.987Z,251.10
2022-10-13T07:53:45.931Z,1016.30
2022-10-13T07:54:45.912Z,1999.90
2022-10-13T07:55:45.888Z,1999.90
2022-10-13T07:56:45.868Z,1999.90
2022-10-13T07:57:45.898Z,1999.90
2022-10-13T07:58:45.850Z,1999.90
2022-10-13T07:59:45.866Z,1999.90
2022-10-13T08:00:45.827Z,1999.90
2022-10-13T08:01:45.873Z,1999.90
2022-10-13T08:02:45.876Z,1999.90
2022-10-13T08:03:49.084Z,1999.90
2022-10-13T08:04:46.800Z,1999.90
2022-10-13T08:05:45.769Z,1999.90
2022-10-13T08:06:45.814Z,1999.90
2022-10-13T08:07:45.747Z,1999.90
2022-10-13T08:08:45.764Z,1999.90
2022-10-13T08:09:45.740Z,1999.90
2022-10-13T08:10:45.731Z,1999.90
2022-10-13T08:11:45.735Z,1999.90
2022-10-13T08:12:45.698Z,1999.90
2022-10-13T08:13:45.702Z,1999.90
2022-10-13T08:14:45.832Z,1999.90
2022-10-13T08:15:45.697Z,1999.90
2022-10-13T08:16:48.689Z,1999.90
2022-10-13T08:17:46.623Z,1999.90
2022-10-13T08:18:45.635Z,1999.90
2022-10-13T08:19:45.622Z,1398.90
2022-10-13T08:20:45.614Z,473.80
2022-10-13T08:22:00.975Z,1999.90
2022-10-13T08:22:46.597Z,1570.20
2022-10-13T08:23:45.574Z,45.10
2022-10-13T08:24:45.574Z,58.20
2022-10-13T08:25:45.545Z,50.80
2022-10-13T08:26:45.590Z,17.00
2022-10-13T08:27:51.087Z,237.20
2022-10-13T08:29:02.975Z,20.50
2022-10-13T08:29:46.515Z,25.70
2022-10-13T08:30:45.619Z,25.70
2022-10-13T08:31:45.721Z,14.60
2022-10-13T08:32:45.471Z,12.30
2022-10-13T08:33:45.445Z,12.20
2022-10-13T08:34:45.453Z,12.90
2022-10-13T08:35:45.425Z,12.30
2022-10-13T08:36:45.461Z,10.60
2022-10-13T08:37:45.439Z,11.70
2022-10-13T08:38:45.417Z,12.10
2022-10-13T08:39:45.412Z,12.00
2022-10-13T08:40:45.402Z,11.60
2022-10-13T08:41:45.394Z,11.40
2022-10-13T08:42:45.344Z,12.00
2022-10-13T08:44:13.389Z,10.40
2022-10-13T08:45:46.319Z,10.50
2022-10-13T08:46:45.339Z,9.30
2022-10-13T08:47:45.292Z,11.20
2022-10-13T08:48:45.296Z,10.90
2022-10-13T08:49:45.284Z,10.60
2022-10-13T08:50:45.259Z,10.30
2022-10-13T08:51:45.305Z,10.20
2022-10-13T08:52:45.293Z,10.80
2022-10-13T08:53:45.250Z,9.30
2022-10-13T08:54:45.218Z,9.20
2022-10-13T08:55:45.242Z,9.60
2022-10-13T08:56:45.198Z,10.00
2022-10-13T08:57:45.246Z,10.20
2022-10-13T08:58:45.180Z,11.70
2022-10-13T08:59:45.160Z,10.80
2022-10-13T09:00:45.165Z,10.10
2022-10-13T09:01:45.174Z,8.90
2022-10-13T09:02:45.176Z,8.70
2022-10-13T09:03:45.121Z,8.40
2022-10-13T09:04:45.124Z,8.80
2022-10-13T09:05:45.094Z,9.20
2022-10-13T09:06:45.078Z,8.90
2022-10-13T09:07:45.148Z,9.40
2022-10-13T09:08:45.059Z,9.00
2022-10-13T09:09:45.103Z,9.70
2022-10-13T09:10:45.034Z,9.50
2022-10-13T09:11:45.053Z,8.80
2022-10-13T09:12:45.033Z,10.10
2022-10-13T09:13:45.010Z,10.20
2022-10-13T09:14:45.055Z,9.70
2022-10-13T09:15:44.974Z,10.90
2022-10-13T09:16:44.976Z,10.40
2022-10-13T09:17:44.981Z,10.60
2022-10-13T09:18:44.955Z,10.10
2022-10-13T09:19:45.003Z,10.10
2022-10-13T09:20:44.925Z,9.30
2022-10-13T09:21:44.914Z,9.10
2022-10-13T09:22:44.910Z,10.70
2022-10-13T09:23:44.915Z,10.20
2022-10-13T09:24:44.926Z,10.40
2022-10-13T09:25:44.878Z,10.90
2022-10-13T09:26:44.838Z,9.70
2022-10-13T09:27:44.857Z,10.00
2022-10-13T09:28:45.937Z,9.60
2022-10-13T09:29:44.869Z,10.60
2022-10-13T09:30:44.810Z,9.90
2022-10-13T09:31:44.800Z,9.90
2022-10-13T09:32:44.800Z,9.70
2022-10-13T09:33:44.777Z,10.60
2022-10-13T09:34:44.810Z,10.90
2022-10-13T09:35:44.744Z,10.40
2022-10-13T09:36:44.753Z,9.90
2022-10-13T09:37:44.738Z,10.50
2022-10-13T09:38:44.705Z,9.80
2022-10-13T09:39:44.737Z,9.70
2022-10-13T09:40:44.709Z,8.90
2022-10-13T09:41:44.723Z,9.40
2022-10-13T09:42:44.675Z,9.40
2022-10-13T09:43:44.660Z,9.80
2022-10-13T09:44:44.698Z,8.90
2022-10-13T09:45:44.642Z,8.80
2022-10-13T09:46:44.635Z,8.70
2022-10-13T09:47:44.636Z,9.40
2022-10-13T09:48:44.620Z,8.80
2022-10-13T09:49:44.656Z,8.80
2022-10-13T09:50:44.602Z,8.90
2022-10-13T09:51:44.571Z,8.80
2022-10-13T09:52:44.560Z,8.70
2022-10-13T09:53:44.557Z,8.70
2022-10-13T09:54:44.586Z,9.10
2022-10-13T09:55:44.535Z,8.80
2022-10-13T09:56:44.523Z,8.70
2022-10-13T09:57:44.519Z,9.00
2022-10-13T09:59:44.530Z,9.10
2022-10-13T10:00:44.496Z,9.20
2022-10-13T10:01:44.469Z,8.90
2022-10-13T10:02:44.476Z,9.10
2022-10-13T10:03:44.553Z,8.70
2022-10-13T10:04:44.434Z,8.50
2022-10-13T10:05:44.426Z,9.00
2022-10-13T10:06:44.417Z,8.60
2022-10-13T10:07:44.401Z,8.90
2022-10-13T10:09:02.020Z,8.90
2022-10-13T10:09:45.406Z,9.10
2022-10-13T10:10:44.361Z,8.80
2022-10-13T10:11:44.373Z,9.10
2022-10-13T10:12:44.329Z,9.00
2022-10-13T10:13:44.377Z,9.40
2022-10-13T10:14:44.322Z,9.30
2022-10-13T10:15:44.307Z,9.20
2022-10-13T10:16:44.325Z,9.30
2022-10-13T10:17:44.289Z,8.80
2022-10-13T10:18:44.276Z,9.70
2022-10-13T10:19:44.337Z,9.60
2022-10-13T10:20:44.276Z,8.90
2022-10-13T10:21:44.246Z,9.30
2022-10-13T10:22:44.248Z,9.50
2022-10-13T10:23:44.226Z,9.60
2022-10-13T10:24:44.263Z,9.70
2022-10-13T10:25:44.198Z,9.40
2022-10-13T10:26:44.183Z,9.40
2022-10-13T10:27:44.194Z,9.00
2022-10-13T10:28:44.240Z,9.60
2022-10-13T10:29:44.185Z,8.60
2022-10-13T10:30:44.143Z,8.50
2022-10-13T10:31:44.135Z,8.40
2022-10-13T10:32:44.134Z,8.70
2022-10-13T10:33:44.115Z,8.80
2022-10-13T10:34:44.160Z,8.80
2022-10-13T10:35:44.102Z,8.50
2022-10-13T10:36:44.099Z,8.40
2022-10-13T10:37:44.055Z,8.70
2022-10-13T10:38:44.077Z,8.20
2022-10-13T10:39:44.070Z,9.00
2022-10-13T10:40:44.059Z,8.20
2022-10-13T10:41:44.004Z,9.40
2022-10-13T10:42:47.295Z,8.90
2022-10-13T10:43:44.982Z,11.30
2022-10-13T10:44:44.138Z,8.10
2022-10-13T10:45:43.986Z,9.40
2022-10-13T10:46:43.957Z,8.30
2022-10-13T10:47:43.971Z,8.60
2022-10-13T10:48:43.959Z,9.00
2022-10-13T10:49:43.973Z,9.10
2022-10-13T10:50:43.917Z,8.80
2022-10-13T10:51:43.922Z,8.80
2022-10-13T10:52:43.901Z,8.10
2022-10-13T10:53:43.876Z,8.80
2022-10-13T10:54:48.321Z,7.80
2022-10-13T10:55:44.873Z,8.50
2022-10-13T10:56:43.880Z,8.30
2022-10-13T10:57:43.832Z,8.30
2022-10-13T10:58:43.838Z,8.90
2022-10-13T10:59:43.880Z,9.20
2022-10-13T11:00:43.831Z,9.40
2022-10-13T11:01:43.841Z,8.90
2022-10-13T11:02:43.797Z,9.40
2022-10-13T11:03:43.769Z,9.10
2022-10-13T11:04:43.818Z,8.50
2022-10-13T11:05:43.765Z,8.50
2022-10-13T11:06:43.757Z,7.90
2022-10-13T11:07:43.748Z,7.90
2022-10-13T11:08:43.722Z,8.40
2022-10-13T11:09:43.767Z,8.80
2022-10-13T11:10:43.697Z,9.30
2022-10-13T11:11:43.679Z,8.80
2022-10-13T11:12:43.669Z,8.90
2022-10-13T11:13:43.688Z,9.40
2022-10-13T11:14:43.711Z,8.80
2022-10-13T11:15:43.668Z,8.70
2022-10-13T11:16:43.649Z,9.00
2022-10-13T11:17:43.624Z,9.70
2022-10-13T11:18:43.619Z,9.60
2022-10-13T11:19:43.665Z,9.50
2022-10-13T11:20:43.600Z,8.90
2022-10-13T11:21:43.623Z,9.20
2022-10-13T11:22:43.585Z,9.10
2022-10-13T11:23:43.569Z,9.00
2022-10-13T11:24:43.608Z,10.30
2022-10-13T11:25:43.532Z,9.30
2022-10-13T11:26:43.518Z,9.10
2022-10-13T11:27:43.514Z,9.20
2022-10-13T11:28:43.522Z,9.20
2022-10-13T11:29:43.570Z,9.00
2022-10-13T11:30:43.492Z,10.70
2022-10-13T11:31:43.496Z,9.50
2022-10-13T11:32:43.470Z,8.90
2022-10-13T11:33:43.461Z,8.20
2022-10-13T11:34:43.504Z,7.50
2022-10-13T11:35:43.425Z,7.80
2022-10-13T11:36:43.417Z,7.60
2022-10-13T11:37:48.298Z,7.40
2022-10-13T11:38:44.406Z,7.60
2022-10-13T11:39:43.420Z,8.20
2022-10-13T11:40:43.364Z,7.90
2022-10-13T11:41:43.358Z,8.60
2022-10-13T11:42:43.371Z,7.90
2022-10-13T11:43:43.374Z,7.90
2022-10-13T11:44:43.392Z,7.40
2022-10-13T11:45:43.312Z,7.20
2022-10-13T11:46:43.334Z,7.30
2022-10-13T11:47:43.292Z,7.40
2022-10-13T11:48:43.305Z,7.20
2022-10-13T11:49:43.313Z,8.00
2022-10-13T11:50:43.266Z,7.20
2022-10-13T11:51:43.264Z,7.40
2022-10-13T11:52:43.259Z,7.30
2022-10-13T11:53:43.232Z,8.00
2022-10-13T11:54:43.272Z,7.90
2022-10-13T11:55:43.234Z,7.60
2022-10-13T11:56:46.115Z,9.00
2022-10-13T11:57:44.196Z,7.60
2022-10-13T11:58:43.185Z,7.30
2022-10-13T11:59:43.213Z,8.00
2022-10-13T12:00:43.163Z,8.10
2022-10-13T12:01:43.150Z,7.80
2022-10-13T12:02:43.194Z,9.60
2022-10-13T12:03:43.114Z,9.00
2022-10-13T12:04:46.630Z,9.00
2022-10-13T12:05:43.093Z,8.70
2022-10-13T12:06:43.076Z,8.80
2022-10-13T12:07:43.077Z,8.50
2022-10-13T12:08:43.063Z,9.10
2022-10-13T12:09:43.099Z,8.40
2022-10-13T12:10:43.038Z,8.40
2022-10-13T12:11:43.036Z,8.90
2022-10-13T12:12:43.037Z,8.90
2022-10-13T12:13:43.001Z,8.40
2022-10-13T12:14:43.064Z,9.20
2022-10-13T12:15:42.987Z,9.30
2022-10-13T12:16:43.072Z,9.40
2022-10-13T12:17:42.973Z,9.20
2022-10-13T12:18:42.967Z,8.90
2022-10-13T12:19:42.983Z,9.30
2022-10-13T12:20:42.918Z,8.80
2022-10-13T12:21:42.915Z,8.90
2022-10-13T12:22:42.909Z,8.60
2022-10-13T12:23:42.897Z,8.00
2022-10-13T12:24:42.932Z,8.50
2022-10-13T12:25:42.880Z,8.10
2022-10-13T12:26:42.876Z,8.40
2022-10-13T12:27:42.859Z,8.40
2022-10-13T12:28:42.955Z,8.20
2022-10-13T12:29:42.870Z,8.60
2022-10-13T12:30:42.816Z,8.70
2022-10-13T12:31:42.821Z,8.40
2022-10-13T12:32:42.809Z,8.50
2022-10-13T12:33:42.771Z,8.00
2022-10-13T12:34:42.816Z,8.00
2022-10-13T12:35:42.761Z,9.10
2022-10-13T12:36:42.809Z,9.50
2022-10-13T12:37:42.737Z,8.90
2022-10-13T12:38:42.709Z,8.60
2022-10-13T12:39:42.757Z,8.20
2022-10-13T12:40:42.696Z,8.60
2022-10-13T12:41:42.707Z,8.50
2022-10-13T12:42:42.687Z,9.00
2022-10-13T12:43:42.681Z,8.60
2022-10-13T12:44:42.718Z,9.70
2022-10-13T12:45:42.654Z,11.70